sensor_id;sensor_type;location;lat;lon;timestamp;P1;durP1;ratioP1;P2;durP2;ratioP2
13228;SDS011;6680;53.220;10.402;2023-05-10T00:01:50;3.50;;;3.20;;
13228;SDS011;6680;53.220;10.402;2023-05-10T00:04:18;4.90;;;3.50;;
13228;SDS011;6680;53.220;10.402;2023-05-10T00:06:45;5.87;;;3.90;;
13228;SDS011;6680;53.220;10.402;2023-05-10T00:09:12;3.77;;;3.40;;
13228;SDS011;6680;53.220;10.402;2023-05-10T00:11:39;5.40;;;3.47;;
13228;SDS011;6680;53.220;10.402;2023-05-10T00:14:06;6.07;;;3.77;;
13228;SDS011;6680;53.220;10.402;2023-05-10T00:16:33;5.40;;;3.27;;
13228;SDS011;6680;53.220;10.402;2023-05-10T00:19:00;3.70;;;3.40;;
13228;SDS011;6680;53.220;10.402;2023-05-10T00:21:28;3.93;;;3.57;;
13228;SDS011;6680;53.220;10.402;2023-05-10T00:23:54;4.20;;;3.80;;
13228;SDS011;6680;53.220;10.402;2023-05-10T00:26:21;5.63;;;3.97;;
13228;SDS011;6680;53.220;10.402;2023-05-10T00:28:48;3.90;;;3.17;;
13228;SDS011;6680;53.220;10.402;2023-05-10T00:31:14;3.63;;;3.20;;
13228;SDS011;6680;53.220;10.402;2023-05-10T00:33:41;4.40;;;3.47;;
13228;SDS011;6680;53.220;10.402;2023-05-10T00:36:08;3.73;;;3.40;;
13228;SDS011;6680;53.220;10.402;2023-05-10T00:38:36;4.77;;;3.20;;
13228;SDS011;6680;53.220;10.402;2023-05-10T00:41:03;3.80;;;3.27;;
13228;SDS011;6680;53.220;10.402;2023-05-10T00:43:30;4.57;;;3.70;;
13228;SDS011;6680;53.220;10.402;2023-05-10T00:45:56;3.73;;;3.23;;
13228;SDS011;6680;53.220;10.402;2023-05-10T00:48:23;3.43;;;3.13;;
13228;SDS011;6680;53.220;10.402;2023-05-10T00:50:50;4.33;;;3.27;;
13228;SDS011;6680;53.220;10.402;2023-05-10T00:53:17;3.60;;;3.30;;
13228;SDS011;6680;53.220;10.402;2023-05-10T00:55:46;4.10;;;3.40;;
13228;SDS011;6680;53.220;10.402;2023-05-10T00:58:12;8.80;;;3.70;;
13228;SDS011;6680;53.220;10.402;2023-05-10T01:00:39;3.67;;;3.30;;
13228;SDS011;6680;53.220;10.402;2023-05-10T01:03:09;4.37;;;3.70;;
13228;SDS011;6680;53.220;10.402;2023-05-10T01:05:36;4.37;;;3.50;;
13228;SDS011;6680;53.220;10.402;2023-05-10T01:08:03;6.80;;;3.43;;
13228;SDS011;6680;53.220;10.402;2023-05-10T01:10:30;4.10;;;3.27;;
13228;SDS011;6680;53.220;10.402;2023-05-10T01:12:58;3.70;;;3.27;;
13228;SDS011;6680;53.220;10.402;2023-05-10T01:15:25;3.63;;;3.10;;
13228;SDS011;6680;53.220;10.402;2023-05-10T01:17:52;4.57;;;3.23;;
13228;SDS011;6680;53.220;10.402;2023-05-10T01:20:20;3.97;;;3.33;;
13228;SDS011;6680;53.220;10.402;2023-05-10T01:23:00;5.20;;;3.60;;
13228;SDS011;6680;53.220;10.402;2023-05-10T01:29:01;4.67;;;3.33;;
13228;SDS011;6680;53.220;10.402;2023-05-10T01:32:06;4.17;;;3.67;;
13228;SDS011;6680;53.220;10.402;2023-05-10T01:34:54;3.47;;;3.13;;
13228;SDS011;6680;53.220;10.402;2023-05-10T01:37:29;3.17;;;2.87;;
13228;SDS011;6680;53.220;10.402;2023-05-10T01:40:03;5.70;;;3.60;;
13228;SDS011;6680;53.220;10.402;2023-05-10T01:42:36;4.63;;;4.20;;
13228;SDS011;6680;53.220;10.402;2023-05-10T01:45:11;3.50;;;3.20;;
13228;SDS011;6680;53.220;10.402;2023-05-10T01:47:46;5.30;;;3.30;;
13228;SDS011;6680;53.220;10.402;2023-05-10T01:50:19;5.00;;;3.93;;
13228;SDS011;6680;53.220;10.402;2023-05-10T01:52:51;3.33;;;3.03;;
13228;SDS011;6680;53.220;10.402;2023-05-10T01:55:20;5.43;;;3.60;;
13228;SDS011;6680;53.220;10.402;2023-05-10T01:57:52;4.33;;;3.23;;
13228;SDS011;6680;53.220;10.402;2023-05-10T02:00:26;3.73;;;3.40;;
13228;SDS011;6680;53.220;10.402;2023-05-10T02:02:56;6.17;;;3.83;;
13228;SDS011;6680;53.220;10.402;2023-05-10T02:05:23;4.97;;;3.70;;
13228;SDS011;6680;53.220;10.402;2023-05-10T02:07:51;5.17;;;3.37;;
13228;SDS011;6680;53.220;10.402;2023-05-10T02:10:18;4.07;;;3.50;;
13228;SDS011;6680;53.220;10.402;2023-05-10T02:12:47;4.70;;;3.43;;
13228;SDS011;6680;53.220;10.402;2023-05-10T02:15:17;3.80;;;3.50;;
13228;SDS011;6680;53.220;10.402;2023-05-10T02:17:46;4.17;;;3.73;;
13228;SDS011;6680;53.220;10.402;2023-05-10T02:20:16;3.83;;;3.53;;
13228;SDS011;6680;53.220;10.402;2023-05-10T02:22:45;6.67;;;3.57;;
13228;SDS011;6680;53.220;10.402;2023-05-10T02:25:13;4.17;;;3.50;;
13228;SDS011;6680;53.220;10.402;2023-05-10T02:27:41;3.50;;;3.17;;
13228;SDS011;6680;53.220;10.402;2023-05-10T02:30:10;4.23;;;3.30;;
13228;SDS011;6680;53.220;10.402;2023-05-10T02:32:38;4.23;;;3.20;;
13228;SDS011;6680;53.220;10.402;2023-05-10T02:35:06;3.67;;;3.33;;
13228;SDS011;6680;53.220;10.402;2023-05-10T02:37:35;4.13;;;3.73;;
13228;SDS011;6680;53.220;10.402;2023-05-10T02:40:04;4.37;;;3.87;;
13228;SDS011;6680;53.220;10.402;2023-05-10T02:42:33;4.07;;;3.67;;
13228;SDS011;6680;53.220;10.402;2023-05-10T02:45:03;3.90;;;3.20;;
13228;SDS011;6680;53.220;10.402;2023-05-10T02:47:33;6.63;;;3.63;;
13228;SDS011;6680;53.220;10.402;2023-05-10T02:50:00;5.40;;;2.93;;
13228;SDS011;6680;53.220;10.402;2023-05-10T02:52:28;3.70;;;3.33;;
13228;SDS011;6680;53.220;10.402;2023-05-10T02:55:04;3.83;;;3.40;;
13228;SDS011;6680;53.220;10.402;2023-05-10T02:57:35;4.23;;;3.17;;
13228;SDS011;6680;53.220;10.402;2023-05-10T03:00:07;4.13;;;3.73;;
13228;SDS011;6680;53.220;10.402;2023-05-10T03:02:34;3.33;;;3.03;;
13228;SDS011;6680;53.220;10.402;2023-05-10T03:05:01;6.40;;;3.70;;
13228;SDS011;6680;53.220;10.402;2023-05-10T03:07:29;4.37;;;3.97;;
13228;SDS011;6680;53.220;10.402;2023-05-10T03:09:55;4.23;;;3.20;;
13228;SDS011;6680;53.220;10.402;2023-05-10T03:12:26;4.10;;;3.37;;
13228;SDS011;6680;53.220;10.402;2023-05-10T03:15:00;4.00;;;3.60;;
13228;SDS011;6680;53.220;10.402;2023-05-10T03:17:34;3.57;;;3.27;;
13228;SDS011;6680;53.220;10.402;2023-05-10T03:20:08;4.03;;;3.63;;
13228;SDS011;6680;53.220;10.402;2023-05-10T03:22:37;4.53;;;3.67;;
13228;SDS011;6680;53.220;10.402;2023-05-10T03:25:07;3.53;;;3.23;;
13228;SDS011;6680;53.220;10.402;2023-05-10T03:27:38;4.10;;;3.67;;
13228;SDS011;6680;53.220;10.402;2023-05-10T03:30:09;4.63;;;3.17;;
13228;SDS011;6680;53.220;10.402;2023-05-10T03:32:38;6.73;;;3.13;;
13228;SDS011;6680;53.220;10.402;2023-05-10T03:35:06;5.30;;;3.53;;
13228;SDS011;6680;53.220;10.402;2023-05-10T03:37:33;4.37;;;3.77;;
13228;SDS011;6680;53.220;10.402;2023-05-10T03:40:00;5.57;;;3.77;;
13228;SDS011;6680;53.220;10.402;2023-05-10T03:42:27;6.27;;;3.47;;
13228;SDS011;6680;53.220;10.402;2023-05-10T03:44:55;4.33;;;3.40;;
13228;SDS011;6680;53.220;10.402;2023-05-10T03:47:22;5.10;;;4.00;;
13228;SDS011;6680;53.220;10.402;2023-05-10T03:49:49;3.67;;;3.37;;
13228;SDS011;6680;53.220;10.402;2023-05-10T03:52:16;6.40;;;3.83;;
13228;SDS011;6680;53.220;10.402;2023-05-10T03:54:43;3.50;;;3.20;;
13228;SDS011;6680;53.220;10.402;2023-05-10T03:57:10;8.50;;;4.10;;
13228;SDS011;6680;53.220;10.402;2023-05-10T03:59:36;6.23;;;3.90;;
13228;SDS011;6680;53.220;10.402;2023-05-10T04:02:04;5.23;;;3.37;;
13228;SDS011;6680;53.220;10.402;2023-05-10T04:04:31;3.43;;;3.17;;
13228;SDS011;6680;53.220;10.402;2023-05-10T04:06:57;3.47;;;3.17;;
13228;SDS011;6680;53.220;10.402;2023-05-10T04:09:24;7.03;;;3.50;;
13228;SDS011;6680;53.220;10.402;2023-05-10T04:11:51;3.63;;;3.10;;
13228;SDS011;6680;53.220;10.402;2023-05-10T04:14:18;3.80;;;3.40;;
13228;SDS011;6680;53.220;10.402;2023-05-10T04:16:44;4.27;;;3.30;;
13228;SDS011;6680;53.220;10.402;2023-05-10T04:19:12;5.10;;;3.93;;
13228;SDS011;6680;53.220;10.402;2023-05-10T04:21:39;4.07;;;3.67;;
13228;SDS011;6680;53.220;10.402;2023-05-10T04:24:06;4.07;;;3.20;;
13228;SDS011;6680;53.220;10.402;2023-05-10T04:26:33;3.90;;;2.90;;
13228;SDS011;6680;53.220;10.402;2023-05-10T04:28:59;5.17;;;3.50;;
13228;SDS011;6680;53.220;10.402;2023-05-10T04:31:26;5.47;;;4.20;;
13228;SDS011;6680;53.220;10.402;2023-05-10T04:33:53;6.43;;;4.17;;
13228;SDS011;6680;53.220;10.402;2023-05-10T04:36:21;3.77;;;3.33;;
13228;SDS011;6680;53.220;10.402;2023-05-10T04:38:47;3.37;;;2.97;;
13228;SDS011;6680;53.220;10.402;2023-05-10T04:41:14;4.53;;;3.63;;
13228;SDS011;6680;53.220;10.402;2023-05-10T04:43:41;3.13;;;2.83;;
13228;SDS011;6680;53.220;10.402;2023-05-10T04:46:08;5.80;;;3.53;;
13228;SDS011;6680;53.220;10.402;2023-05-10T04:48:34;4.87;;;3.20;;
13228;SDS011;6680;53.220;10.402;2023-05-10T04:51:01;7.70;;;3.77;;
13228;SDS011;6680;53.220;10.402;2023-05-10T04:53:30;3.80;;;3.40;;
13228;SDS011;6680;53.220;10.402;2023-05-10T04:55:57;4.00;;;3.43;;
13228;SDS011;6680;53.220;10.402;2023-05-10T04:58:23;5.13;;;3.47;;
13228;SDS011;6680;53.220;10.402;2023-05-10T05:00:51;4.57;;;3.73;;
13228;SDS011;6680;53.220;10.402;2023-05-10T05:03:17;4.00;;;3.60;;
13228;SDS011;6680;53.220;10.402;2023-05-10T05:05:44;5.37;;;3.60;;
13228;SDS011;6680;53.220;10.402;2023-05-10T05:08:11;4.03;;;3.63;;
13228;SDS011;6680;53.220;10.402;2023-05-10T05:10:39;3.57;;;3.20;;
13228;SDS011;6680;53.220;10.402;2023-05-10T05:13:06;5.40;;;3.03;;
13228;SDS011;6680;53.220;10.402;2023-05-10T05:15:32;3.57;;;3.27;;
13228;SDS011;6680;53.220;10.402;2023-05-10T05:17:59;4.13;;;3.43;;
13228;SDS011;6680;53.220;10.402;2023-05-10T05:20:26;9.13;;;3.73;;
13228;SDS011;6680;53.220;10.402;2023-05-10T05:22:52;8.40;;;3.00;;
13228;SDS011;6680;53.220;10.402;2023-05-10T05:25:19;5.13;;;3.33;;
13228;SDS011;6680;53.220;10.402;2023-05-10T05:27:47;4.00;;;3.53;;
13228;SDS011;6680;53.220;10.402;2023-05-10T05:30:14;4.30;;;3.03;;
13228;SDS011;6680;53.220;10.402;2023-05-10T05:32:41;3.97;;;3.53;;
13228;SDS011;6680;53.220;10.402;2023-05-10T05:35:08;6.50;;;3.50;;
13228;SDS011;6680;53.220;10.402;2023-05-10T05:37:34;3.70;;;3.00;;
13228;SDS011;6680;53.220;10.402;2023-05-10T05:40:02;4.73;;;3.40;;
13228;SDS011;6680;53.220;10.402;2023-05-10T05:42:30;3.83;;;3.17;;
13228;SDS011;6680;53.220;10.402;2023-05-10T05:44:58;3.43;;;3.13;;
13228;SDS011;6680;53.220;10.402;2023-05-10T05:47:25;3.70;;;3.40;;
13228;SDS011;6680;53.220;10.402;2023-05-10T05:49:52;3.60;;;3.23;;
13228;SDS011;6680;53.220;10.402;2023-05-10T05:52:20;4.10;;;3.47;;
13228;SDS011;6680;53.220;10.402;2023-05-10T05:54:47;3.80;;;3.13;;
13228;SDS011;6680;53.220;10.402;2023-05-10T05:57:13;3.90;;;3.27;;
13228;SDS011;6680;53.220;10.402;2023-05-10T05:59:40;3.87;;;3.47;;
13228;SDS011;6680;53.220;10.402;2023-05-10T06:02:10;4.50;;;3.50;;
13228;SDS011;6680;53.220;10.402;2023-05-10T06:04:37;6.13;;;3.00;;
13228;SDS011;6680;53.220;10.402;2023-05-10T06:07:03;4.97;;;3.27;;
13228;SDS011;6680;53.220;10.402;2023-05-10T06:09:30;3.20;;;2.83;;
13228;SDS011;6680;53.220;10.402;2023-05-10T06:11:57;5.33;;;3.10;;
13228;SDS011;6680;53.220;10.402;2023-05-10T06:14:23;3.63;;;3.33;;
13228;SDS011;6680;53.220;10.402;2023-05-10T06:16:50;3.33;;;3.03;;
13228;SDS011;6680;53.220;10.402;2023-05-10T06:19:18;4.23;;;3.37;;
13228;SDS011;6680;53.220;10.402;2023-05-10T06:21:45;4.07;;;3.00;;
13228;SDS011;6680;53.220;10.402;2023-05-10T06:24:12;4.33;;;2.87;;
13228;SDS011;6680;53.220;10.402;2023-05-10T06:26:38;4.23;;;3.33;;
13228;SDS011;6680;53.220;10.402;2023-05-10T06:29:05;2.87;;;2.57;;
13228;SDS011;6680;53.220;10.402;2023-05-10T06:31:32;5.50;;;3.63;;
13228;SDS011;6680;53.220;10.402;2023-05-10T06:33:58;5.87;;;3.20;;
13228;SDS011;6680;53.220;10.402;2023-05-10T06:36:27;3.90;;;3.50;;
13228;SDS011;6680;53.220;10.402;2023-05-10T06:38:53;3.70;;;3.07;;
13228;SDS011;6680;53.220;10.402;2023-05-10T06:41:20;3.57;;;3.17;;
13228;SDS011;6680;53.220;10.402;2023-05-10T06:43:47;3.50;;;3.20;;
13228;SDS011;6680;53.220;10.402;2023-05-10T06:46:13;3.30;;;3.00;;
13228;SDS011;6680;53.220;10.402;2023-05-10T06:48:40;5.20;;;3.47;;
13228;SDS011;6680;53.220;10.402;2023-05-10T06:51:06;5.03;;;3.33;;
13228;SDS011;6680;53.220;10.402;2023-05-10T06:53:34;4.00;;;3.10;;
13228;SDS011;6680;53.220;10.402;2023-05-10T06:56:01;6.20;;;3.33;;
13228;SDS011;6680;53.220;10.402;2023-05-10T06:58:28;5.43;;;3.47;;
13228;SDS011;6680;53.220;10.402;2023-05-10T07:01:01;7.50;;;3.10;;
13228;SDS011;6680;53.220;10.402;2023-05-10T07:03:28;3.40;;;3.10;;
13228;SDS011;6680;53.220;10.402;2023-05-10T07:05:59;5.73;;;3.20;;
13228;SDS011;6680;53.220;10.402;2023-05-10T07:08:28;3.33;;;3.03;;
13228;SDS011;6680;53.220;10.402;2023-05-10T07:11:00;4.27;;;3.70;;
13228;SDS011;6680;53.220;10.402;2023-05-10T07:13:28;3.97;;;3.30;;
13228;SDS011;6680;53.220;10.402;2023-05-10T07:15:55;3.87;;;2.90;;
13228;SDS011;6680;53.220;10.402;2023-05-10T07:18:22;3.73;;;3.23;;
13228;SDS011;6680;53.220;10.402;2023-05-10T07:20:48;4.27;;;3.40;;
13228;SDS011;6680;53.220;10.402;2023-05-10T07:23:15;3.43;;;3.00;;
13228;SDS011;6680;53.220;10.402;2023-05-10T07:25:44;3.70;;;3.33;;
13228;SDS011;6680;53.220;10.402;2023-05-10T07:28:12;5.03;;;3.70;;
13228;SDS011;6680;53.220;10.402;2023-05-10T07:30:39;4.13;;;3.00;;
13228;SDS011;6680;53.220;10.402;2023-05-10T07:33:06;4.70;;;3.77;;
13228;SDS011;6680;53.220;10.402;2023-05-10T07:35:33;3.67;;;3.37;;
13228;SDS011;6680;53.220;10.402;2023-05-10T07:38:00;3.43;;;3.13;;
13228;SDS011;6680;53.220;10.402;2023-05-10T07:40:27;3.87;;;3.27;;
13228;SDS011;6680;53.220;10.402;2023-05-10T07:42:54;5.77;;;3.80;;
13228;SDS011;6680;53.220;10.402;2023-05-10T07:45:22;3.70;;;3.40;;
13228;SDS011;6680;53.220;10.402;2023-05-10T07:47:49;3.67;;;3.17;;
13228;SDS011;6680;53.220;10.402;2023-05-10T07:50:16;3.93;;;3.53;;
13228;SDS011;6680;53.220;10.402;2023-05-10T07:52:43;4.27;;;3.40;;
13228;SDS011;6680;53.220;10.402;2023-05-10T07:55:10;3.63;;;3.40;;
13228;SDS011;6680;53.220;10.402;2023-05-10T07:57:37;3.77;;;3.37;;
13228;SDS011;6680;53.220;10.402;2023-05-10T08:00:04;3.47;;;3.17;;
13228;SDS011;6680;53.220;10.402;2023-05-10T08:02:34;6.37;;;3.00;;
13228;SDS011;6680;53.220;10.402;2023-05-10T08:05:01;4.03;;;3.53;;
13228;SDS011;6680;53.220;10.402;2023-05-10T08:07:28;4.07;;;3.50;;
13228;SDS011;6680;53.220;10.402;2023-05-10T08:09:54;4.07;;;3.17;;
13228;SDS011;6680;53.220;10.402;2023-05-10T08:12:21;3.57;;;3.20;;
13228;SDS011;6680;53.220;10.402;2023-05-10T08:14:48;3.33;;;3.13;;
13228;SDS011;6680;53.220;10.402;2023-05-10T08:17:15;4.40;;;3.50;;
13228;SDS011;6680;53.220;10.402;2023-05-10T08:19:43;3.83;;;3.43;;
13228;SDS011;6680;53.220;10.402;2023-05-10T08:22:09;3.73;;;3.23;;
13228;SDS011;6680;53.220;10.402;2023-05-10T08:24:36;3.67;;;3.37;;
13228;SDS011;6680;53.220;10.402;2023-05-10T08:27:04;4.23;;;3.20;;
13228;SDS011;6680;53.220;10.402;2023-05-10T08:29:31;8.30;;;3.60;;
13228;SDS011;6680;53.220;10.402;2023-05-10T08:31:57;6.30;;;3.93;;
13228;SDS011;6680;53.220;10.402;2023-05-10T08:34:25;4.17;;;3.77;;
13228;SDS011;6680;53.220;10.402;2023-05-10T08:36:53;3.90;;;3.20;;
13228;SDS011;6680;53.220;10.402;2023-05-10T08:39:20;8.87;;;3.40;;
13228;SDS011;6680;53.220;10.402;2023-05-10T08:41:48;4.57;;;3.60;;
13228;SDS011;6680;53.220;10.402;2023-05-10T08:44:20;4.27;;;3.27;;
13228;SDS011;6680;53.220;10.402;2023-05-10T08:46:46;4.97;;;3.90;;
13228;SDS011;6680;53.220;10.402;2023-05-10T08:49:17;5.70;;;3.63;;
13228;SDS011;6680;53.220;10.402;2023-05-10T08:51:47;5.77;;;3.33;;
13228;SDS011;6680;53.220;10.402;2023-05-10T08:54:18;5.17;;;3.73;;
13228;SDS011;6680;53.220;10.402;2023-05-10T08:56:45;5.07;;;3.70;;
13228;SDS011;6680;53.220;10.402;2023-05-10T08:59:12;4.23;;;3.53;;
13228;SDS011;6680;53.220;10.402;2023-05-10T09:01:40;4.57;;;3.93;;
13228;SDS011;6680;53.220;10.402;2023-05-10T09:04:09;4.10;;;3.70;;
13228;SDS011;6680;53.220;10.402;2023-05-10T09:06:37;4.80;;;3.33;;
13228;SDS011;6680;53.220;10.402;2023-05-10T09:09:04;4.33;;;3.90;;
13228;SDS011;6680;53.220;10.402;2023-05-10T09:11:32;5.50;;;3.57;;
13228;SDS011;6680;53.220;10.402;2023-05-10T09:14:00;3.53;;;3.20;;
13228;SDS011;6680;53.220;10.402;2023-05-10T09:16:27;4.23;;;3.80;;
13228;SDS011;6680;53.220;10.402;2023-05-10T09:18:54;5.13;;;3.40;;
13228;SDS011;6680;53.220;10.402;2023-05-10T09:21:20;3.80;;;3.20;;
13228;SDS011;6680;53.220;10.402;2023-05-10T09:23:47;4.50;;;3.90;;
13228;SDS011;6680;53.220;10.402;2023-05-10T09:26:15;3.60;;;3.30;;
13228;SDS011;6680;53.220;10.402;2023-05-10T09:28:53;4.10;;;3.60;;
13228;SDS011;6680;53.220;10.402;2023-05-10T09:31:21;4.53;;;3.47;;
13228;SDS011;6680;53.220;10.402;2023-05-10T09:33:49;4.00;;;3.40;;
13228;SDS011;6680;53.220;10.402;2023-05-10T09:36:16;5.33;;;3.73;;
13228;SDS011;6680;53.220;10.402;2023-05-10T09:38:46;4.10;;;3.70;;
13228;SDS011;6680;53.220;10.402;2023-05-10T09:41:17;6.50;;;4.20;;
13228;SDS011;6680;53.220;10.402;2023-05-10T09:43:45;4.20;;;3.53;;
13228;SDS011;6680;53.220;10.402;2023-05-10T09:46:13;5.13;;;3.97;;
13228;SDS011;6680;53.220;10.402;2023-05-10T09:48:41;9.53;;;3.87;;
13228;SDS011;6680;53.220;10.402;2023-05-10T09:51:09;4.83;;;3.30;;
13228;SDS011;6680;53.220;10.402;2023-05-10T09:53:36;5.73;;;4.07;;
13228;SDS011;6680;53.220;10.402;2023-05-10T09:56:03;4.07;;;3.63;;
13228;SDS011;6680;53.220;10.402;2023-05-10T09:58:30;8.40;;;4.00;;
13228;SDS011;6680;53.220;10.402;2023-05-10T10:00:56;4.00;;;3.50;;
13228;SDS011;6680;53.220;10.402;2023-05-10T10:03:25;5.70;;;4.20;;
13228;SDS011;6680;53.220;10.402;2023-05-10T10:05:52;4.53;;;3.97;;
13228;SDS011;6680;53.220;10.402;2023-05-10T10:08:21;4.37;;;3.93;;
13228;SDS011;6680;53.220;10.402;2023-05-10T10:10:48;3.60;;;3.30;;
13228;SDS011;6680;53.220;10.402;2023-05-10T10:13:15;5.47;;;3.93;;
13228;SDS011;6680;53.220;10.402;2023-05-10T10:15:42;4.57;;;3.80;;
13228;SDS011;6680;53.220;10.402;2023-05-10T10:18:12;5.40;;;4.07;;
13228;SDS011;6680;53.220;10.402;2023-05-10T10:20:41;6.40;;;4.33;;
13228;SDS011;6680;53.220;10.402;2023-05-10T10:23:08;4.03;;;3.63;;
13228;SDS011;6680;53.220;10.402;2023-05-10T10:25:35;6.03;;;3.97;;
13228;SDS011;6680;53.220;10.402;2023-05-10T10:28:07;5.10;;;3.83;;
13228;SDS011;6680;53.220;10.402;2023-05-10T10:30:41;5.33;;;4.43;;
13228;SDS011;6680;53.220;10.402;2023-05-10T10:36:06;4.57;;;4.17;;
13228;SDS011;6680;53.220;10.402;2023-05-10T10:38:37;6.57;;;4.30;;
13228;SDS011;6680;53.220;10.402;2023-05-10T10:41:27;8.83;;;3.97;;
13228;SDS011;6680;53.220;10.402;2023-05-10T10:46:59;4.47;;;4.07;;
13228;SDS011;6680;53.220;10.402;2023-05-10T10:49:48;5.47;;;4.30;;
13228;SDS011;6680;53.220;10.402;2023-05-10T10:52:23;6.17;;;5.03;;
13228;SDS011;6680;53.220;10.402;2023-05-10T10:54:56;5.23;;;4.70;;
13228;SDS011;6680;53.220;10.402;2023-05-10T10:57:26;5.93;;;5.33;;
13228;SDS011;6680;53.220;10.402;2023-05-10T11:02:47;5.33;;;4.50;;
13228;SDS011;6680;53.220;10.402;2023-05-10T11:05:33;4.50;;;3.73;;
13228;SDS011;6680;53.220;10.402;2023-05-10T11:08:08;5.57;;;4.33;;
13228;SDS011;6680;53.220;10.402;2023-05-10T11:10:36;6.07;;;5.07;;
13228;SDS011;6680;53.220;10.402;2023-05-10T11:13:04;6.40;;;5.13;;
13228;SDS011;6680;53.220;10.402;2023-05-10T11:15:32;5.50;;;4.27;;
13228;SDS011;6680;53.220;10.402;2023-05-10T11:18:15;5.93;;;4.80;;
13228;SDS011;6680;53.220;10.402;2023-05-10T11:20:43;4.80;;;4.23;;
13228;SDS011;6680;53.220;10.402;2023-05-10T11:23:13;5.87;;;4.60;;
13228;SDS011;6680;53.220;10.402;2023-05-10T11:25:41;4.23;;;3.77;;
13228;SDS011;6680;53.220;10.402;2023-05-10T11:28:09;6.70;;;4.13;;
13228;SDS011;6680;53.220;10.402;2023-05-10T11:30:37;5.60;;;4.50;;
13228;SDS011;6680;53.220;10.402;2023-05-10T11:33:05;5.80;;;4.67;;
13228;SDS011;6680;53.220;10.402;2023-05-10T11:35:32;6.53;;;5.10;;
13228;SDS011;6680;53.220;10.402;2023-05-10T11:38:04;6.40;;;5.37;;
13228;SDS011;6680;53.220;10.402;2023-05-10T11:40:33;5.57;;;4.47;;
13228;SDS011;6680;53.220;10.402;2023-05-10T11:43:00;6.40;;;5.10;;
13228;SDS011;6680;53.220;10.402;2023-05-10T11:45:28;6.20;;;4.93;;
13228;SDS011;6680;53.220;10.402;2023-05-10T11:47:56;5.20;;;4.70;;
13228;SDS011;6680;53.220;10.402;2023-05-10T11:50:23;6.80;;;5.00;;
13228;SDS011;6680;53.220;10.402;2023-05-10T11:52:51;6.87;;;5.33;;
13228;SDS011;6680;53.220;10.402;2023-05-10T11:55:18;6.83;;;5.83;;
13228;SDS011;6680;53.220;10.402;2023-05-10T11:57:46;7.00;;;4.97;;
13228;SDS011;6680;53.220;10.402;2023-05-10T12:00:14;6.33;;;4.90;;
13228;SDS011;6680;53.220;10.402;2023-05-10T12:02:41;7.03;;;5.63;;
13228;SDS011;6680;53.220;10.402;2023-05-10T12:05:08;6.40;;;5.03;;
13228;SDS011;6680;53.220;10.402;2023-05-10T12:07:35;6.67;;;5.47;;
13228;SDS011;6680;53.220;10.402;2023-05-10T12:10:03;5.97;;;4.40;;
13228;SDS011;6680;53.220;10.402;2023-05-10T12:12:35;5.70;;;4.87;;
13228;SDS011;6680;53.220;10.402;2023-05-10T12:15:05;8.00;;;5.67;;
13228;SDS011;6680;53.220;10.402;2023-05-10T12:17:36;9.23;;;4.73;;
13228;SDS011;6680;53.220;10.402;2023-05-10T12:20:13;5.53;;;4.93;;
13228;SDS011;6680;53.220;10.402;2023-05-10T12:22:40;6.40;;;5.30;;
13228;SDS011;6680;53.220;10.402;2023-05-10T12:25:09;5.87;;;4.73;;
13228;SDS011;6680;53.220;10.402;2023-05-10T12:27:36;6.70;;;5.27;;
13228;SDS011;6680;53.220;10.402;2023-05-10T12:30:05;5.77;;;4.67;;
13228;SDS011;6680;53.220;10.402;2023-05-10T12:32:39;7.37;;;4.90;;
13228;SDS011;6680;53.220;10.402;2023-05-10T12:35:06;5.43;;;4.87;;
13228;SDS011;6680;53.220;10.402;2023-05-10T12:37:34;4.70;;;4.10;;
13228;SDS011;6680;53.220;10.402;2023-05-10T12:40:05;5.83;;;5.23;;
13228;SDS011;6680;53.220;10.402;2023-05-10T12:42:34;8.47;;;5.20;;
13228;SDS011;6680;53.220;10.402;2023-05-10T12:45:01;6.90;;;5.20;;
13228;SDS011;6680;53.220;10.402;2023-05-10T12:47:29;5.67;;;4.70;;
13228;SDS011;6680;53.220;10.402;2023-05-10T12:49:56;8.67;;;4.57;;
13228;SDS011;6680;53.220;10.402;2023-05-10T12:52:23;6.63;;;4.80;;
13228;SDS011;6680;53.220;10.402;2023-05-10T12:54:50;6.50;;;5.00;;
13228;SDS011;6680;53.220;10.402;2023-05-10T12:57:16;6.10;;;4.33;;
13228;SDS011;6680;53.220;10.402;2023-05-10T12:59:43;4.93;;;4.37;;
13228;SDS011;6680;53.220;10.402;2023-05-10T13:02:10;5.37;;;4.77;;
13228;SDS011;6680;53.220;10.402;2023-05-10T13:04:38;5.63;;;4.87;;
13228;SDS011;6680;53.220;10.402;2023-05-10T13:07:05;7.33;;;5.03;;
13228;SDS011;6680;53.220;10.402;2023-05-10T13:09:32;6.37;;;4.27;;
13228;SDS011;6680;53.220;10.402;2023-05-10T13:11:58;5.90;;;4.20;;
13228;SDS011;6680;53.220;10.402;2023-05-10T13:14:25;5.80;;;4.10;;
13228;SDS011;6680;53.220;10.402;2023-05-10T13:16:53;4.60;;;4.20;;
13228;SDS011;6680;53.220;10.402;2023-05-10T13:19:20;5.40;;;4.73;;
13228;SDS011;6680;53.220;10.402;2023-05-10T13:21:48;5.40;;;4.90;;
13228;SDS011;6680;53.220;10.402;2023-05-10T13:24:14;5.90;;;4.30;;
13228;SDS011;6680;53.220;10.402;2023-05-10T13:26:42;4.90;;;4.27;;
13228;SDS011;6680;53.220;10.402;2023-05-10T13:29:09;4.33;;;3.87;;
13228;SDS011;6680;53.220;10.402;2023-05-10T13:31:36;4.40;;;3.33;;
13228;SDS011;6680;53.220;10.402;2023-05-10T13:34:03;4.50;;;3.47;;
13228;SDS011;6680;53.220;10.402;2023-05-10T13:36:29;4.37;;;3.73;;
13228;SDS011;6680;53.220;10.402;2023-05-10T13:38:57;3.87;;;3.43;;
13228;SDS011;6680;53.220;10.402;2023-05-10T13:41:26;3.63;;;3.33;;
13228;SDS011;6680;53.220;10.402;2023-05-10T13:43:53;5.40;;;3.80;;
13228;SDS011;6680;53.220;10.402;2023-05-10T13:46:19;4.33;;;3.93;;
13228;SDS011;6680;53.220;10.402;2023-05-10T13:48:46;4.43;;;4.03;;
13228;SDS011;6680;53.220;10.402;2023-05-10T13:51:13;3.63;;;3.17;;
13228;SDS011;6680;53.220;10.402;2023-05-10T13:53:39;3.47;;;3.17;;
13228;SDS011;6680;53.220;10.402;2023-05-10T13:56:07;3.87;;;3.33;;
13228;SDS011;6680;53.220;10.402;2023-05-10T13:58:34;4.20;;;3.80;;
13228;SDS011;6680;53.220;10.402;2023-05-10T14:01:01;3.43;;;3.13;;
13228;SDS011;6680;53.220;10.402;2023-05-10T14:03:29;4.73;;;3.53;;
13228;SDS011;6680;53.220;10.402;2023-05-10T14:05:57;4.47;;;3.13;;
13228;SDS011;6680;53.220;10.402;2023-05-10T14:08:24;3.63;;;3.33;;
13228;SDS011;6680;53.220;10.402;2023-05-10T14:10:52;4.07;;;3.07;;
13228;SDS011;6680;53.220;10.402;2023-05-10T14:13:20;3.23;;;2.93;;
13228;SDS011;6680;53.220;10.402;2023-05-10T14:15:46;3.13;;;2.83;;
13228;SDS011;6680;53.220;10.402;2023-05-10T14:18:13;3.53;;;2.97;;
13228;SDS011;6680;53.220;10.402;2023-05-10T14:20:40;3.20;;;2.90;;
13228;SDS011;6680;53.220;10.402;2023-05-10T14:23:06;5.17;;;2.97;;
13228;SDS011;6680;53.220;10.402;2023-05-10T14:25:33;3.53;;;3.20;;
13228;SDS011;6680;53.220;10.402;2023-05-10T14:28:00;2.70;;;2.50;;
13228;SDS011;6680;53.220;10.402;2023-05-10T14:30:28;2.87;;;2.57;;
13228;SDS011;6680;53.220;10.402;2023-05-10T14:32:55;3.67;;;2.80;;
13228;SDS011;6680;53.220;10.402;2023-05-10T14:35:23;3.23;;;2.67;;
13228;SDS011;6680;53.220;10.402;2023-05-10T14:37:50;2.93;;;2.67;;
13228;SDS011;6680;53.220;10.402;2023-05-10T14:40:16;2.47;;;2.27;;
13228;SDS011;6680;53.220;10.402;2023-05-10T14:42:43;2.90;;;2.60;;
13228;SDS011;6680;53.220;10.402;2023-05-10T14:45:10;2.50;;;2.07;;
13228;SDS011;6680;53.220;10.402;2023-05-10T14:47:38;3.03;;;2.73;;
13228;SDS011;6680;53.220;10.402;2023-05-10T14:50:05;2.83;;;2.63;;
13228;SDS011;6680;53.220;10.402;2023-05-10T14:52:33;2.53;;;2.20;;
13228;SDS011;6680;53.220;10.402;2023-05-10T14:54:59;2.97;;;2.60;;
13228;SDS011;6680;53.220;10.402;2023-05-10T14:57:26;2.60;;;2.40;;
13228;SDS011;6680;53.220;10.402;2023-05-10T14:59:54;2.53;;;2.33;;
13228;SDS011;6680;53.220;10.402;2023-05-10T15:02:21;2.50;;;2.30;;
13228;SDS011;6680;53.220;10.402;2023-05-10T15:04:49;3.17;;;2.10;;
13228;SDS011;6680;53.220;10.402;2023-05-10T15:07:16;3.03;;;2.80;;